Latest Coastal Weather Observations for Maria Island

IDT60701

Issued at 11:42 am EST Sunday 31 July 2016 (issued every 10 minutes, with the page automatically refreshed every 10 minutes)

About coastal observations | Map of coastal stations | Coastal observations for TAS | Marine services | Other Formats
Station Details ID: 092124 Name: MARIA ISLAND (POINT LESUEUR) Lat: -42.66 Lon: 148.02 Height: 28.0 m
Data from the previous 72 hours. | See also: Recent months at Maria Island
Date/Time
EST
Temp
°C
Wind Pressure Rain since
9am
mm
Weather Cloud Vis
km
Sea
Height
m
Swell
Dir  Spd
kts
Gust
kts
hPa Trend Height
m
Period
s
Dir
31/11:30am 12.3 W 17 23 1007.6 - 0.0 - - - - - - -
31/11:21am 12.2 W 15 23 1007.5 - 0.0 - - - - - - -
31/11:00am 12.2 W 11 21 1007.9 - 0.0 - - - - - - -
31/10:30am 11.7 W 13 23 1007.5 - 0.0 - - - - - - -
31/10:00am 11.5 WNW 6 10 1007.3 - 0.0 - - - - - - -
31/09:30am 10.9 WNW 7 11 1007.0 - 0.0 - - - - - - -
31/09:00am 10.0 WNW 15 21 1006.4 - 0.8 - - - - - - -
31/08:30am 10.0 W 15 20 1005.7 - 0.8 - - - - - - -
31/08:00am 10.2 W 9 15 1005.5 - 0.8 - - - - - - -
31/07:30am 10.2 NW 8 13 1004.6 - 0.8 - - - - - - -
31/07:00am 10.3 NW 10 17 1004.4 - 0.8 - - - - - - -
31/06:30am 10.9 NNE 7 10 1004.0 - 0.8 - - - - - - -
31/06:00am 10.8 W 8 16 1003.6 - 0.8 - - - - - - -
31/05:30am 11.0 W 13 19 1002.8 - 0.8 - - - - - - -
31/05:00am 11.1 WNW 10 15 1002.2 - 0.8 - - - - - - -
31/04:30am 11.8 E 2 4 1002.7 - 0.8 - - - - - - -
31/04:00am 11.5 NNW 7 10 1002.1 - 0.8 - - - - - - -
31/03:30am 11.8 NW 7 9 1001.8 - 0.8 - - - - - - -
31/03:00am 11.7 NW 12 18 1002.1 - 0.8 Rain - - - - - -
31/02:30am 13.0 NNW 19 24 1001.9 - 0.0 - - - - - - -
31/02:28am 13.0 NNW 20 27 1001.8 - 0.0 - - - - - - -
31/02:00am 12.7 N 19 24 1001.7 - 0.0 - - - - - - -
31/01:30am 12.7 N 16 18 1002.0 - 0.0 - - - - - - -
31/01:00am 12.2 N 19 22 1002.4 - 0.0 - - - - - - -
31/12:30am 12.4 N 24 29 1002.7 - 0.0 - - - - - - -
31/12:00am 12.1 N 22 28 1003.1 - 0.0 - - - - - - -
 
Date/Time
EST
Temp
°C
Wind Pressure Rain since
9am
mm
Weather Cloud Vis
km
Sea
Height
m
Swell
Dir  Spd
kts
Gust
kts
hPa Trend Height
m
Period
s
Dir
30/11:30pm 12.1 N 20 25 1004.5 - 0.0 - - - - - - -
30/11:00pm 11.9 N 16 19 1005.1 - 0.0 - - - - - - -
30/10:30pm 11.4 N 14 17 1005.9 - 0.0 - - - - - - -
30/10:00pm 11.2 N 15 20 1006.6 - 0.0 - - - - - - -
30/09:30pm 11.0 N 18 21 1007.1 - 0.0 - - - - - - -
30/09:00pm 10.9 N 21 25 1007.9 - 0.0 - - - - - - -
30/08:30pm 10.6 N 16 20 1007.9 - 0.0 - - - - - - -
30/08:00pm 10.6 N 18 23 1008.4 - 0.0 - - - - - - -
30/07:30pm 10.4 N 17 19 1009.0 - 0.0 - - - - - - -
30/07:00pm 10.1 N 15 19 1009.2 - 0.0 - - - - - - -
30/06:30pm 10.0 N 16 19 1009.3 - 0.0 - - - - - - -
30/06:00pm 9.9 N 18 21 1009.6 - 0.0 - - - - - - -
30/05:30pm 9.6 N 17 20 1009.7 - 0.0 - - - - - - -
30/05:00pm 9.8 N 18 21 1010.3 - 0.0 - - - - - - -
30/04:30pm 9.8 N 16 18 1010.9 - 0.0 - - - - - - -
30/04:00pm 9.8 N 16 19 1011.5 - 0.0 - - - - - - -
30/03:30pm 9.9 N 17 19 1011.9 - 0.0 - - - - - - -
30/03:00pm 10.2 N 16 19 1012.1 - 0.0 - - - - - - -
30/02:30pm 10.0 N 17 21 1012.6 - 0.0 - - - - - - -
30/02:00pm 9.7 N 18 21 1013.0 - 0.0 - - - - - - -
30/01:30pm 9.7 NNE 16 19 1013.5 - 0.0 - - - - - - -
30/01:00pm 9.4 NNE 15 18 1014.3 - 0.0 - - - - - - -
30/12:30pm 9.8 N 11 14 1015.3 - 0.0 - - - - - - -
30/12:00pm 9.3 N 7 9 1016.3 - 0.0 - - - - - - -
30/11:30am 9.3 N 9 10 1017.1 - 0.0 - - - - - - -
30/11:00am 8.9 N 4 6 1017.7 - 0.0 - - - - - - -
30/10:30am 8.4 N 5 7 1018.0 - 0.0 - - - - - - -
30/10:00am 8.3 WNW 5 7 1018.1 - 0.0 - - - - - - -
30/09:30am 7.5 W 5 8 1018.4 - 0.0 - - - - - - -
30/09:00am 6.8 W 7 9 1018.4 - 0.6 - - - - - - -
30/08:30am 6.2 WNW 7 9 1018.4 - 0.6 - - - - - - -
30/08:00am 5.8 WNW 9 11 1018.2 - 0.6 - - - - - - -
30/07:30am 5.2 WNW 9 11 1018.0 - 0.6 - - - - - - -
30/07:00am 4.8 WNW 9 11 1017.7 - 0.6 - - - - - - -
30/06:30am 5.1 WNW 7 9 1017.6 - 0.6 - - - - - - -
30/06:00am 5.5 WNW 9 10 1017.7 - 0.6 - - - - - - -
30/05:30am 5.9 WNW 8 10 1017.4 - 0.6 - - - - - - -
30/05:00am 6.1 WNW 8 9 1017.3 - 0.6 - - - - - - -
30/04:30am 6.1 WNW 9 10 1017.6 - 0.6 - - - - - - -
30/04:00am 6.6 WNW 8 10 1017.1 - 0.6 - - - - - - -
30/03:30am 6.7 NW 8 10 1017.1 - 0.6 - - - - - - -
30/03:00am 7.0 WNW 10 11 1016.9 - 0.6 - - - - - - -
30/02:30am 7.6 NW 7 10 1017.0 - 0.6 - - - - - - -
30/02:00am 7.6 WNW 7 11 1016.8 - 0.6 - - - - - - -
30/01:30am 7.8 W 10 15 1016.4 - 0.6 - - - - - - -
30/01:00am 7.9 WSW 12 17 1016.3 - 0.6 - - - - - - -
30/12:30am 8.1 WSW 16 21 1015.6 - 0.6 - - - - - - -
30/12:00am 8.5 WSW 9 15 1015.9 - 0.6 - - - - - - -
 
Date/Time
EST
Temp
°C
Wind Pressure Rain since
9am
mm
Weather Cloud Vis
km
Sea
Height
m
Swell
Dir  Spd
kts
Gust
kts
hPa Trend Height
m
Period
s
Dir
29/11:30pm 8.3 WSW 11 15 1015.4 - 0.6 - - - - - - -
29/11:00pm 8.3 WSW 13 20 1014.5 - 0.6 - - - - - - -
29/10:39pm 8.8 SW 23 34 1013.5 - 0.6 - - - - - - -
29/10:30pm 9.0 SW 26 32 1013.3 - 0.6 - - - - - - -
29/10:00pm 9.0 SW 19 25 1013.6 - 0.6 - - - - - - -
29/09:30pm 9.0 SW 11 17 1013.5 - 0.6 - - - - - - -
29/09:00pm 8.8 WSW 7 13 1013.3 - 0.6 - - - - - - -
29/08:36pm 9.2 WSW 22 33 1012.4 - 0.6 - - - - - - -
29/08:30pm 9.3 WSW 26 33 1011.9 - 0.6 - - - - - - -
29/08:14pm 9.3 SW 22 35 1011.8 - 0.6 - - - - - - -
29/08:00pm 9.4 SW 21 28 1011.7 - 0.6 - - - - - - -
29/07:30pm 9.8 WSW 18 29 1010.8 - 0.6 - - - - - - -
29/07:00pm 9.9 SW 25 33 1009.6 - 0.6 - - - - - - -
29/06:51pm 9.9 SW 26 37 1009.5 - 0.6 - - - - - - -
29/06:30pm 10.1 SW 29 39 1008.9 - 0.6 - - - - - - -
29/06:24pm 10.1 SW 27 39 1009.0 - 0.6 - - - - - - -
29/06:19pm 10.2 SW 26 35 1008.6 - 0.6 - - - - - - -
29/06:00pm 9.9 SW 21 32 1008.7 - 0.6 Recent precip. - - - - - -
29/05:56pm 9.8 SW 20 32 1008.6 - 0.6 - - - - - - -
29/05:30pm 9.3 SSW 24 28 1007.8 - 0.6 - - - - - - -
29/05:11pm 10.3 SW 14 27 1007.5 - 0.6 - - - - - - -
29/05:00pm 10.6 WSW 12 17 1007.0 - 0.2 - - - - - - -
29/04:30pm 11.4 W 10 14 1006.3 - 0.0 - - - - - - -
29/04:00pm 11.2 WSW 20 26 1005.6 - 0.0 - - - - - - -
29/03:42pm 12.0 WSW 21 33 1005.1 - 0.0 - - - - - - -
29/03:30pm 12.2 W 20 24 1005.0 - 0.0 - - - - - - -
29/03:00pm 12.7 WNW 13 19 1004.8 - 0.0 - - - - - - -
29/02:30pm 12.6 NW 13 16 1004.5 - 0.0 - - - - - - -
29/02:00pm 12.5 NW 15 19 1004.5 - 0.0 - - - - - - -
29/01:30pm 12.2 W 11 16 1004.8 - 0.0 - - - - - - -
29/01:00pm 13.1 W 11 15 1004.8 - 0.0 - - - - - - -
29/12:30pm 13.5 WNW 19 27 1004.8 - 0.0 - - - - - - -
29/12:06pm 14.8 W 11 21 1004.9 - 0.0 - - - - - - -
29/12:00pm 14.4 WSW 5 11 1005.0 - 0.0 - - - - - - -
29/11:30am 13.4 W 11 15 1005.3 - 0.0 - - - - - - -
29/11:00am 13.0 NNW 15 20 1005.8 - 0.0 - - - - - - -
29/10:30am 12.7 NNW 17 20 1005.8 - 0.0 - - - - - - -
29/10:00am 12.0 N 18 21 1005.7 - 0.0 - - - - - - -
29/09:30am 11.3 N 18 21 1005.9 - 0.0 - - - - - - -
29/09:00am 10.9 N 16 19 1006.4 - 0.0 - - - - - - -
29/08:30am 10.6 NNW 16 20 1006.6 - 0.0 - - - - - - -
29/08:00am 10.8 NNW 14 17 1006.7 - 0.0 - - - - - - -
29/07:30am 11.0 NNW 14 20 1006.7 - 0.0 - - - - - - -
29/07:00am 10.4 NNW 11 15 1007.0 - 0.0 - - - - - - -
29/06:30am 9.9 N 14 17 1006.8 - 0.0 - - - - - - -
29/06:00am 9.8 N 15 19 1006.9 - 0.0 - - - - - - -
29/05:30am 9.7 N 15 18 1007.0 - 0.0 - - - - - - -
29/05:00am 9.7 N 13 16 1007.1 - 0.0 - - - - - - -
29/04:30am 9.4 NNW 13 15 1007.3 - 0.0 - - - - - - -
29/04:00am 9.5 NNW 13 17 1007.7 - 0.0 - - - - - - -
29/03:30am 9.6 NNW 15 18 1007.7 - 0.0 - - - - - - -
29/03:00am 10.1 NNW 16 18 1007.7 - 0.0 - - - - - - -
29/02:30am 10.3 N 10 15 1008.3 - 0.0 - - - - - - -
29/02:00am 10.5 NNW 9 13 1008.8 - 0.0 - - - - - - -
29/01:30am 10.3 N 13 15 1008.9 - 0.0 - - - - - - -
29/01:00am 10.1 N 13 16 1009.2 - 0.0 - - - - - - -
29/12:30am 10.8 NNW 11 13 1009.4 - 0.0 - - - - - - -
29/12:00am 10.9 NW 10 14 1009.7 - 0.0 - - - - - - -
 
Date/Time
EST
Temp
°C
Wind Pressure Rain since
9am
mm
Weather Cloud Vis
km
Sea
Height
m
Swell
Dir  Spd
kts
Gust
kts
hPa Trend Height
m
Period
s
Dir
28/11:30pm 10.8 NW 9 15 1010.0 - 0.0 - - - - - - -
28/11:00pm 10.6 NW 8 12 1010.2 - 0.0 - - - - - - -
28/10:30pm 10.9 WNW 11 15 1010.3 - 0.0 - - - - - - -
28/10:00pm 10.7 NW 10 13 1010.4 - 0.0 - - - - - - -
28/09:30pm 10.9 WNW 13 17 1010.4 - 0.0 - - - - - - -
28/09:00pm 10.7 NW 8 12 1010.6 - 0.0 - - - - - - -
28/08:30pm 10.9 NW 13 16 1010.4 - 0.0 - - - - - - -
28/08:00pm 11.5 WNW 11 16 1010.3 - 0.0 - - - - - - -
28/07:30pm 11.4 WSW 8 10 1010.3 - 0.0 - - - - - - -
28/07:00pm 11.7 WSW 12 16 1010.0 - 0.0 - - - - - - -
28/06:30pm 11.9 W 17 23 1009.6 - 0.0 - - - - - - -
28/06:00pm 12.1 W 12 18 1009.4 - 0.0 - - - - - - -
28/05:30pm 12.6 WSW 5 13 1009.2 - 0.0 - - - - - - -
28/05:00pm 13.0 WSW 9 16 1008.4 - 0.0 - - - - - - -
28/04:30pm 14.0 W 9 15 1007.7 - 0.0 - - - - - - -
28/04:00pm 14.2 WSW 9 20 1007.3 - 0.0 - - - - - - -
28/03:30pm 14.7 WSW 18 28 1006.2 - 0.0 - - - - - - -
28/03:00pm 14.8 WSW 11 17 1006.6 - 0.0 - - - - - - -
28/02:30pm 15.4 W 12 24 1006.3 - 0.0 - - - - - - -
28/02:00pm 15.3 WSW 15 23 1005.8 - 0.0 - - - - - - -
28/01:32pm 15.2 WSW 22 32 1005.6 - 0.0 - - - - - - -
28/01:30pm 15.4 WSW 23 32 1005.5 - 0.0 - - - - - - -
28/01:27pm 15.1 WSW 21 32 1005.4 - 0.0 - - - - - - -
28/01:00pm 15.1 W 25 32 1005.7 - 0.0 - - - - - - -
28/12:30pm 15.2 W 19 31 1005.8 - 0.0 - - - - - - -
28/12:23pm 15.1 W 19 31 1005.7 - 0.0 - - - - - - -
28/12:00pm 15.1 W 13 18 1006.0 - 0.0 - - - - - - -
28/11:49am 14.9 WSW 16 25 1006.1 - 0.0 - - - - - - -

Other Formats:

Comma delimited format used in spreadsheet applications
http://www.bom.gov.au/fwo/IDT60701/IDT60701.95988.axf

JavaScript Object Notation format (JSON) in row-major order
http://www.bom.gov.au/fwo/IDT60701/IDT60701.95988.json